Portada
METAR-TAF:

METAR-TAF

Aeroports :

Altenstadt, Alemanya

latitud: 47-50N, longitud: 010-52E, altitud: 739 m

Observació

L'informe es va fer fa 30 minuts, a les 22:20 UTC
Vent 1 kt del Nord
Temperatura 18°C
Humitat 88%
Pressió 1023 hPa
Visibilitat 10 km o més

METAR: ETHA 182220Z AUTO 35001KT 9999 // ////// 18/16 Q1023 ///

Hora: 00:50 (22:50 UTC)

Pronòstic

L'informe es va fer fa 9 hores i 30 minuts, a les 13:20 UTC
Pronòstic vàlid del 18 a les 14 UTC al 18 a les 23 UTC
Vent 8 kt del Est
Visibilitat 10 km o més
Núvols disperses a una alçada de 3000 ft

TAF: ETHA 181320Z 1814/1823 08008KT 9999 NSW SCT030

Observacions i pronòstics meteorològics de més de 4000 aeroports (METAR i TAF).

Les estacions disponibles són els punts grocs i vermells al mapa.

Posi el ratolí al punt desitjat per veure el nom de l'estació.

Feu clic per veure les observacions i els pronòstics meteorològics.

Per canviar el mapa: feu clic els botons verds amb una creu de color negre per apropar; al botó verd amb un guió per allunyar la imatge; o en les fletxes verdes per a mapes adjacents.


METAR-TAF: